Thunderstorms From: 26-05-2018 09:00 Until: 27-05-2018 05:00 warning for: Thunderstorms Level: Yellow info button

Although rather usual in this region, locally or potentially dangerous phenomena are expected. (such as local winds, summer thunderstorms, rising streams or high waves) Be aware and pay attention to the latest weather updates, especially if you carry out activities exposed to weather or close to a stream or shoreline. 


Meteo18 Weather Cam more information Meteo18 Weather Cam


warning for Thunderstorms more information blitzortung!


Rain radar more information rain snow radar


Visit our other weather sites:

Template documentation
and downloads

And another site



Weather Underground History page Text

Daily Summary for Nil La, TWC- Units:  English    Metric   Both
« Previous Day
Next Day »
Daily Weekly Monthly Yearly Custom
  High: Low: Average:
Temperature: TemperatureC °F 15.2 °F 19.4 °F
Dew Point: DewpointC °F 14.2 °F 15.6 °F
Humidity: Humidity % 52 % 80 %
Wind Speed: WindSpeedKMH mph 0.0 mph 3.1 mph
Wind Gust: WindSpeedGustKMH mph - -
Wind:- - ESE
Pressure: PressurehPa in 1013.8 in -
Precipitation: 0.0 in    
Historical Graphs
 
 
Tabular Data for Nil La, TWC-
Time Temperature Dew Point Pressure Wind Wind Speed Wind Gust Humidity Rainfall Rate (Hourly)
TemperatureC °F DewpointC °F PressurehPa in Calm     Humidity % HourlyPrecipMM in
00:01 17.6 °F 16.1 °F 1015.5 in NNE 3.2 mph 4.8 mph 91 % 0.0 in
00:07 17.4 °F 15.9 °F 1015.1 in North 6.4 mph 6.4 mph 91 % 0.0 in
00:13 17.6 °F 16.1 °F 1015.1 in NNE 4.7 mph 12.9 mph 91 % 0.0 in
00:19 17.6 °F 15.8 °F 1015.5 in NE 4.7 mph 8.0 mph 89 % 0.0 in
00:25 17.6 °F 15.8 °F 1015.5 in North 3.2 mph 6.4 mph 89 % 0.0 in
00:31 17.5 °F 15.7 °F 1015.5 in North 4.7 mph 9.7 mph 89 % 0.0 in
00:37 17.4 °F 15.6 °F 1015.1 in NNE 4.7 mph 8.0 mph 89 % 0.0 in
00:43 17.4 °F 15.7 °F 1015.1 in NNW 4.7 mph 9.7 mph 90 % 0.0 in
00:49 17.4 °F 15.7 °F 1015.1 in NE 9.7 mph 12.9 mph 90 % 0.0 in
00:55 17.5 °F 15.8 °F 1015.1 in NNE 11.1 mph 11.3 mph 90 % 0.0 in
01:01 17.5 °F 15.8 °F 1015.1 in NNW 9.7 mph 12.9 mph 90 % 0.0 in
01:07 17.5 °F 15.7 °F 1015.1 in ENE 6.4 mph 8.0 mph 89 % 0.0 in
01:13 17.4 °F 15.7 °F 1015.5 in NNE 3.2 mph 6.4 mph 90 % 0.0 in
01:19 17.3 °F 15.6 °F 1015.5 in NE 9.7 mph 11.3 mph 90 % 0.0 in
01:25 17.3 °F 15.8 °F 1015.1 in NNE 4.7 mph 11.3 mph 91 % 0.0 in
01:31 17.3 °F 15.8 °F 1015.1 in NE 4.7 mph 8.0 mph 91 % 0.0 in
01:37 17.2 °F 15.7 °F 1015.1 in NNE 4.7 mph 6.4 mph 91 % 0.0 in
01:44 17.0 °F 15.7 °F 1015.1 in NE 3.2 mph 6.4 mph 92 % 0.0 in
01:50 16.9 °F 15.6 °F 1015.1 in North 3.2 mph 3.2 mph 92 % 0.0 in
01:56 16.9 °F 15.6 °F 1015.1 in NNE 1.4 mph 4.8 mph 92 % 0.0 in
02:02 16.8 °F 15.5 °F 1015.1 in NNE 3.2 mph 4.8 mph 92 % 0.0 in
02:08 16.8 °F 15.7 °F 1015.1 in North 3.2 mph 6.4 mph 93 % 0.0 in
02:14 16.8 °F 15.7 °F 1015.1 in North 1.4 mph 6.4 mph 93 % 0.0 in
02:20 16.8 °F 15.7 °F 1014.8 in Calm   6.4 mph 93 % 0.0 in
02:26 16.8 °F 15.7 °F 1014.8 in North 3.2 mph 6.4 mph 93 % 0.0 in
02:32 16.8 °F 15.7 °F 1014.8 in NNW 3.2 mph 4.8 mph 93 % 0.0 in
02:38 16.8 °F 15.7 °F 1014.8 in North 1.4 mph 4.8 mph 93 % 0.0 in
02:44 16.8 °F 15.7 °F 1014.8 in NNE 1.4 mph 4.8 mph 93 % 0.0 in
02:50 16.7 °F 15.6 °F 1014.8 in NNE 3.2 mph 4.8 mph 93 % 0.0 in
02:56 16.7 °F 15.6 °F 1014.8 in Calm   1.6 mph 93 % 0.0 in
03:02 16.7 °F 15.6 °F 1014.8 in Calm   1.6 mph 93 % 0.0 in
03:08 16.7 °F 15.6 °F 1014.8 in Calm   3.2 mph 93 % 0.0 in
03:14 16.6 °F 15.5 °F 1014.8 in Calm   1.6 mph 93 % 0.0 in
03:20 16.6 °F 15.5 °F 1014.8 in Calm     93 % 0.0 in
03:26 16.4 °F 15.3 °F 1014.4 in Calm   1.6 mph 93 % 0.0 in
03:32 16.3 °F 15.2 °F 1014.4 in NW 1.4 mph 1.6 mph 93 % 0.0 in
03:38 16.3 °F 15.2 °F 1014.4 in Calm     93 % 0.0 in
03:44 16.3 °F 15.2 °F 1014.4 in Calm   1.6 mph 93 % 0.0 in
03:50 16.4 °F 15.3 °F 1014.4 in Calm   1.6 mph 93 % 0.0 in
03:56 16.4 °F 15.3 °F 1014.4 in Calm   1.6 mph 93 % 0.0 in
04:02 16.3 °F 15.2 °F 1014.4 in North 1.4 mph 3.2 mph 93 % 0.0 in
04:08 16.3 °F 15.2 °F 1014.4 in Calm   4.8 mph 93 % 0.0 in
04:14 16.3 °F 15.2 °F 1014.4 in Calm   1.6 mph 93 % 0.0 in
04:20 16.2 °F 15.1 °F 1014.4 in Calm     93 % 0.0 in
04:26 16.2 °F 15.1 °F 1014.4 in Calm   1.6 mph 93 % 0.0 in
04:32 16.1 °F 15.0 °F 1014.4 in NNE 1.4 mph 4.8 mph 93 % 0.0 in
04:38 16.3 °F 15.3 °F 1014.1 in NNE 7.9 mph 11.3 mph 94 % 0.0 in
04:44 16.4 °F 15.1 °F 1014.1 in NNE 7.9 mph 9.7 mph 92 % 0.0 in
04:50 16.6 °F 15.3 °F 1014.1 in NE 6.4 mph 9.7 mph 92 % 0.0 in
04:56 16.5 °F 15.0 °F 1014.1 in NE 9.7 mph 9.7 mph 91 % 0.0 in
05:03 16.6 °F 15.1 °F 1014.1 in NE 7.9 mph 11.3 mph 91 % 0.0 in
05:09 16.6 °F 15.1 °F 1014.1 in NNE 9.7 mph 9.7 mph 91 % 0.0 in
05:15 16.5 °F 15.0 °F 1013.8 in NE 6.4 mph 9.7 mph 91 % 0.0 in
05:21 16.4 °F 14.9 °F 1013.8 in ENE 1.4 mph 8.0 mph 91 % 0.0 in
05:27 16.4 °F 14.9 °F 1013.8 in NE 3.2 mph 4.8 mph 91 % 0.0 in
05:33 16.3 °F 14.7 °F 1014.1 in Calm   1.6 mph 90 % 0.0 in
05:39 16.0 °F 14.5 °F 1013.8 in West 1.4 mph 1.6 mph 91 % 0.0 in
05:45 15.7 °F 14.2 °F 1014.1 in Calm   1.6 mph 91 % 0.0 in
05:51 15.5 °F 14.2 °F 1013.8 in Calm   1.6 mph 92 % 0.0 in
05:57 15.3 °F 14.2 °F 1014.1 in WNW 1.4 mph 1.6 mph 93 % 0.0 in
06:03 15.2 °F 14.2 °F 1014.1 in West 1.4 mph 1.6 mph 94 % 0.0 in
06:09 15.3 °F 14.3 °F 1014.1 in Calm     94 % 0.0 in
06:15 15.4 °F 14.4 °F 1014.1 in North 1.4 mph 4.8 mph 94 % 0.0 in
06:21 15.4 °F 14.4 °F 1014.1 in North 1.4 mph 3.2 mph 94 % 0.0 in
06:27 15.5 °F 14.4 °F 1014.1 in Calm   4.8 mph 93 % 0.0 in
06:33 15.5 °F 14.4 °F 1014.1 in North 1.4 mph 3.2 mph 93 % 0.0 in
06:39 15.4 °F 14.3 °F 1014.1 in Calm   1.6 mph 93 % 0.0 in
06:45 15.4 °F 14.3 °F 1014.4 in NW 1.4 mph 1.6 mph 93 % 0.0 in
06:51 15.4 °F 14.3 °F 1014.4 in WNW 1.4 mph 1.6 mph 93 % 0.0 in
06:57 15.6 °F 14.5 °F 1014.4 in Calm   1.6 mph 93 % 0.0 in
07:03 15.6 °F 14.3 °F 1014.4 in WNW 1.4 mph 1.6 mph 92 % 0.0 in
07:09 15.6 °F 14.5 °F 1014.8 in WNW 1.4 mph 3.2 mph 93 % 0.0 in
07:15 15.7 °F 14.6 °F 1014.8 in WNW 1.4 mph 3.2 mph 93 % 0.0 in
07:21 15.7 °F 14.6 °F 1014.8 in WNW 1.4 mph 1.6 mph 93 % 0.0 in
07:27 16.0 °F 14.9 °F 1014.8 in Calm   1.6 mph 93 % 0.0 in
07:33 16.6 °F 15.5 °F 1015.1 in Calm   1.6 mph 93 % 0.0 in
07:40 17.4 °F 15.7 °F 1015.1 in Calm     90 % 0.0 in
07:46 18.5 °F 16.7 °F 1015.1 in Calm     89 % 0.0 in
07:52 19.3 °F 16.5 °F 1015.1 in Calm     84 % 0.0 in
07:58 19.6 °F 16.2 °F 1015.1 in Calm     81 % 0.0 in
08:04 19.9 °F 15.7 °F 1015.5 in Calm   3.2 mph 77 % 0.0 in
08:10 19.9 °F 15.9 °F 1015.5 in Calm   3.2 mph 78 % 0.0 in
08:16 19.9 °F 15.9 °F 1015.5 in WSW 3.2 mph 4.8 mph 78 % 0.0 in
08:22 19.8 °F 15.9 °F 1015.5 in East 1.4 mph 6.4 mph 78 % 0.0 in
08:28 19.8 °F 16.1 °F 1015.5 in ESE 1.4 mph 4.8 mph 79 % 0.0 in
08:34 20.0 °F 16.4 °F 1015.8 in Calm   4.8 mph 80 % 0.0 in
08:40 20.2 °F 16.8 °F 1015.8 in Calm   1.6 mph 81 % 0.0 in
08:46 20.3 °F 16.7 °F 1015.8 in Calm   4.8 mph 80 % 0.0 in
08:52 20.2 °F 16.8 °F 1015.5 in SE 1.4 mph 4.8 mph 81 % 0.0 in
08:58 20.2 °F 16.6 °F 1015.5 in ESE 1.4 mph 4.8 mph 80 % 0.0 in
09:04 20.3 °F 16.7 °F 1015.5 in Calm   1.6 mph 80 % 0.0 in
09:10 20.5 °F 16.9 °F 1015.5 in SSW 3.2 mph 3.2 mph 80 % 0.0 in
09:16 20.3 °F 16.9 °F 1015.5 in Calm     81 % 0.0 in
09:22 20.2 °F 16.8 °F 1015.5 in East 4.7 mph 4.8 mph 81 % 0.0 in
09:28 19.8 °F 16.8 °F 1015.5 in Calm   4.8 mph 83 % 0.0 in
09:34 20.1 °F 17.1 °F 1015.5 in Calm   1.6 mph 83 % 0.0 in
09:40 20.4 °F 16.8 °F 1015.5 in East 1.4 mph 3.2 mph 80 % 0.0 in
09:46 20.9 °F 16.9 °F 1015.5 in Calm   3.2 mph 78 % 0.0 in
09:52 21.2 °F 17.4 °F 1015.8 in SE 4.7 mph 6.4 mph 79 % 0.0 in
09:58 21.8 °F 17.8 °F 1015.8 in Calm   4.8 mph 78 % 0.0 in
10:04 22.3 °F 17.7 °F 1015.8 in Calm   6.4 mph 75 % 0.0 in
10:10 22.3 °F 17.7 °F 1015.8 in ENE 4.7 mph 8.0 mph 75 % 0.0 in
10:16 22.6 °F 17.5 °F 1015.8 in SE 7.9 mph 9.7 mph 73 % 0.0 in
10:22 22.4 °F 17.3 °F 1015.8 in ESE 1.4 mph 12.9 mph 73 % 0.0 in
10:28 22.0 °F 16.7 °F 1016.1 in Calm   6.4 mph 72 % 0.0 in
10:34 21.7 °F 16.9 °F 1016.1 in Calm   4.8 mph 74 % 0.0 in
10:40 21.7 °F 17.1 °F 1016.1 in SSE 1.4 mph 1.6 mph 75 % 0.0 in
10:46 21.7 °F 17.1 °F 1016.1 in Calm   1.6 mph 75 % 0.0 in
10:52 21.9 °F 17.1 °F 1016.1 in East 3.2 mph 4.8 mph 74 % 0.0 in
10:58 22.1 °F 16.1 °F 1016.1 in ESE 4.7 mph 8.0 mph 69 % 0.0 in
11:04 22.2 °F 16.2 °F 1016.1 in South 3.2 mph 8.0 mph 69 % 0.0 in
11:10 22.4 °F 15.7 °F 1015.8 in Calm   4.8 mph 66 % 0.0 in
11:16 22.8 °F 16.4 °F 1016.1 in SSW 3.2 mph 8.0 mph 67 % 0.0 in
11:22 22.8 °F 15.9 °F 1015.8 in SSW 1.4 mph 6.4 mph 65 % 0.0 in
11:28 23.0 °F 16.1 °F 1016.1 in South 1.4 mph 4.8 mph 65 % 0.0 in
11:34 23.1 °F 15.9 °F 1016.1 in SE 3.2 mph 6.4 mph 64 % 0.0 in
11:40 23.4 °F 16.0 °F 1016.1 in SW 4.7 mph 8.0 mph 63 % 0.0 in
11:46 23.9 °F 15.9 °F 1016.1 in Calm   4.8 mph 61 % 0.0 in
11:52 24.4 °F 15.9 °F 1016.1 in Calm   6.4 mph 59 % 0.0 in
11:58 24.9 °F 16.1 °F 1016.1 in ESE 4.7 mph 6.4 mph 58 % 0.0 in
12:04 25.1 °F 16.0 °F 1016.1 in East 4.7 mph 11.3 mph 57 % 0.0 in
12:10 24.9 °F 16.1 °F 1016.1 in ENE 6.4 mph 9.7 mph 58 % 0.0 in
12:16 24.3 °F 16.3 °F 1016.1 in ESE 4.7 mph 9.7 mph 61 % 0.0 in
12:22 23.8 °F 16.6 °F 1016.1 in East 1.4 mph 4.8 mph 64 % 0.0 in
12:28 23.5 °F 16.8 °F 1016.1 in East 4.7 mph 9.7 mph 66 % 0.0 in
12:34 23.6 °F 16.9 °F 1016.1 in East 3.2 mph 8.0 mph 66 % 0.0 in
12:40 23.6 °F 15.6 °F 1015.8 in ENE 7.9 mph 9.7 mph 61 % 0.0 in
12:46 23.5 °F 15.8 °F 1015.8 in East 6.4 mph 17.7 mph 62 % 0.0 in
12:52 23.4 °F 15.4 °F 1015.8 in East 3.2 mph 6.4 mph 61 % 0.0 in
12:59 23.7 °F 15.5 °F 1016.1 in SE 3.2 mph 9.7 mph 60 % 0.0 in
13:05 23.9 °F 16.2 °F 1016.1 in SE 4.7 mph 14.5 mph 62 % 0.0 in
13:11 23.9 °F 15.9 °F 1016.1 in ESE 4.7 mph 6.4 mph 61 % 0.0 in
13:17 24.1 °F 16.4 °F 1016.1 in ESE 4.7 mph 8.0 mph 62 % 0.0 in
13:23 24.2 °F 17.0 °F 1016.1 in ESE 3.2 mph 6.4 mph 64 % 0.0 in
13:29 23.8 °F 16.1 °F 1015.8 in ENE 3.2 mph 9.7 mph 62 % 0.0 in
13:35 23.5 °F 16.0 °F 1015.5 in ENE 4.7 mph 11.3 mph 63 % 0.0 in
13:41 23.4 °F 16.2 °F 1015.5 in ENE 9.7 mph 16.1 mph 64 % 0.0 in
13:47 23.5 °F 15.8 °F 1015.5 in ESE 1.4 mph 16.1 mph 62 % 0.0 in
13:53 23.7 °F 15.7 °F 1015.5 in East 3.2 mph 3.2 mph 61 % 0.0 in
13:59 23.7 °F 15.7 °F 1015.5 in ENE 6.4 mph 8.0 mph 61 % 0.0 in
14:05 23.9 °F 16.7 °F 1015.1 in NE 6.4 mph 9.7 mph 64 % 0.0 in
14:11 23.9 °F 16.7 °F 1015.5 in ENE 9.7 mph 17.7 mph 64 % 0.0 in
14:17 24.0 °F 15.5 °F 1015.5 in East 3.2 mph 12.9 mph 59 % 0.0 in
14:23 23.9 °F 15.1 °F 1015.5 in East 1.4 mph 12.9 mph 58 % 0.0 in
14:29 23.7 °F 14.7 °F 1015.1 in ENE 9.7 mph 12.9 mph 57 % 0.0 in
14:35 23.6 °F 15.1 °F 1015.1 in East 9.7 mph 12.9 mph 59 % 0.0 in
14:41 23.8 °F 15.8 °F 1015.1 in ENE 4.7 mph 9.7 mph 61 % 0.0 in
14:47 24.4 °F 15.9 °F 1015.1 in East 9.7 mph 11.3 mph 59 % 0.0 in
14:53 24.6 °F 15.5 °F 1015.1 in SE 9.7 mph 14.5 mph 57 % 0.0 in
14:59 24.8 °F 15.1 °F 1015.1 in SE 3.2 mph 14.5 mph 55 % 0.0 in
15:05 25.3 °F 15.9 °F 1015.1 in SE 1.4 mph 12.9 mph 56 % 0.0 in
15:11 25.6 °F 15.6 °F 1015.1 in ENE 11.1 mph 19.3 mph 54 % 0.0 in
15:17 25.6 °F 15.0 °F 1014.4 in ENE 9.7 mph 19.3 mph 52 % 0.0 in
15:23 25.8 °F 15.2 °F 1014.4 in ENE 17.7 mph 19.3 mph 52 % 0.0 in
Meteo18
Compliments of Weather Underground - 4 mb

Script developed by  Jim McMurry - jmcmurry@mwt.net Adapted for the template by  Wim van der Kuil - Leuven-Template.eu

You find our weather info also at:

European Weather Network

Weather Underground

Equipment we use:

Weather-station
Davis Vue

Weather-program
Meteobridge

Weather-server
Raspberry PI 2 B+

Provider
1 and 1

Davis Vue

Meteobridge

Raspberry PI 2 B+

1 and 1